KLM643 EHAM-KJFK
Flight info
| Callsign | KLM643 |
|---|---|
| Flight time | N/A |
| Altitude | 36000 |
| Route | BERGI L60 PENIL M144 BAGSO DCT NEBIN/M082F370 DCT 5330N02000W 5430N03000W 5430N04000W 5230N05000W DCT SAXAN/N0466F380 N550A TOPPS DCT ENE PARCH4 |
| Aircraft | A339/H-SADE1E2E3GHIJ3J5M1P2RWXY/LB2D1 |
Departure
| Time | 2026-04-17 21:06 |
|---|---|
| Airport | Amsterdam Airport Schiphol (EHAM) |
Arrival
| Time | N/A |
|---|---|
| Airport | John F. Kennedy International Airport (KJFK) |
| Time | Latitude | Longitude | Altitude | Speed | Heading |
|---|---|---|---|---|---|
| 2026-04-17 20:54 | 52.31372 | 4.76173 | 4 ft | 0 kts | 178° |
| 2026-04-17 20:58 | 52.31386 | 4.76173 | 5 ft | 4 kts | 178° |
| 2026-04-17 20:58 | 52.31411 | 4.76172 | 6 ft | 4 kts | 164° |
| 2026-04-17 20:59 | 52.31433 | 4.76159 | 7 ft | 4 kts | 133° |
| 2026-04-17 20:59 | 52.31448 | 4.76129 | 5 ft | 3 kts | 102° |
| 2026-04-17 20:59 | 52.31452 | 4.76093 | 4 ft | 1 kts | 86° |
| 2026-04-17 20:59 | 52.31451 | 4.76087 | 4 ft | 0 kts | 86° |
| 2026-04-17 21:01 | 52.31452 | 4.76094 | 4 ft | 3 kts | 86° |
| 2026-04-17 21:02 | 52.31454 | 4.76170 | 5 ft | 11 kts | 86° |
| 2026-04-17 21:02 | 52.31460 | 4.76331 | 3 ft | 18 kts | 86° |
| 2026-04-17 21:02 | 52.31468 | 4.76553 | 3 ft | 21 kts | 86° |
| 2026-04-17 21:02 | 52.31477 | 4.76816 | 3 ft | 25 kts | 86° |
| 2026-04-17 21:03 | 52.31484 | 4.77100 | 3 ft | 18 kts | 95° |
| 2026-04-17 21:03 | 52.31430 | 4.77289 | 3 ft | 20 kts | 139° |
| 2026-04-17 21:03 | 52.31316 | 4.77452 | 3 ft | 23 kts | 136° |
| 2026-04-17 21:03 | 52.31156 | 4.77504 | 3 ft | 25 kts | 184° |
| 2026-04-17 21:04 | 52.30968 | 4.77477 | 3 ft | 28 kts | 185° |
| 2026-04-17 21:04 | 52.30763 | 4.77464 | 3 ft | 31 kts | 184° |
| 2026-04-17 21:04 | 52.30567 | 4.77547 | 3 ft | 29 kts | 151° |
| 2026-04-17 21:04 | 52.30460 | 4.77636 | 5 ft | 0 kts | 165° |
| 2026-04-17 21:05 | 52.30442 | 4.77638 | 5 ft | 11 kts | 175° |
| 2026-04-17 21:05 | 52.30373 | 4.77533 | 2 ft | 13 kts | 245° |
| 2026-04-17 21:05 | 52.30309 | 4.77357 | 0 ft | 32 kts | 238° |
| 2026-04-17 21:05 | 52.30049 | 4.76688 | 2 ft | 106 kts | 238° |
| 2026-04-17 21:06 | 52.29559 | 4.75397 | 4 ft | 163 kts | 237° |
| 2026-04-17 21:06 | 52.28891 | 4.73694 | 369 ft | 181 kts | 238° |
| 2026-04-17 21:06 | 52.28246 | 4.71940 | 1166 ft | 177 kts | 239° |
| 2026-04-17 21:06 | 52.27614 | 4.70281 | 2049 ft | 171 kts | 235° |
| 2026-04-17 21:07 | 52.26787 | 4.68739 | 2510 ft | 187 kts | 223° |
| 2026-04-17 21:07 | 52.25804 | 4.67271 | 2848 ft | 205 kts | 222° |
| 2026-04-17 21:07 | 52.24723 | 4.65475 | 3183 ft | 224 kts | 231° |
| 2026-04-17 21:07 | 52.23888 | 4.63180 | 3476 ft | 243 kts | 246° |
| 2026-04-17 21:08 | 52.23342 | 4.60431 | 3993 ft | 248 kts | 251° |
| 2026-04-17 21:08 | 52.23066 | 4.57750 | 4535 ft | 254 kts | 270° |
| 2026-04-17 21:08 | 52.23542 | 4.54949 | 5141 ft | 262 kts | 296° |
| 2026-04-17 21:08 | 52.24769 | 4.52702 | 5725 ft | 272 kts | 321° |
| 2026-04-17 21:09 | 52.26406 | 4.51087 | 6289 ft | 277 kts | 328° |
| 2026-04-17 21:09 | 52.28105 | 4.49583 | 6864 ft | 279 kts | 328° |
| 2026-04-17 21:09 | 52.29829 | 4.48021 | 7475 ft | 280 kts | 327° |
| 2026-04-17 21:09 | 52.31514 | 4.46418 | 8076 ft | 281 kts | 326° |
| 2026-04-17 21:10 | 52.33192 | 4.44769 | 8672 ft | 282 kts | 326° |
| 2026-04-17 21:10 | 52.34887 | 4.43126 | 9281 ft | 285 kts | 330° |
| 2026-04-17 21:10 | 52.36757 | 4.42005 | 9895 ft | 289 kts | 345° |
| 2026-04-17 21:10 | 52.38772 | 4.41592 | 10430 ft | 295 kts | 353° |
| 2026-04-17 21:11 | 52.40854 | 4.41320 | 10592 ft | 312 kts | 353° |
| 2026-04-17 21:11 | 52.43081 | 4.40996 | 10746 ft | 329 kts | 352° |
| 2026-04-17 21:11 | 52.44654 | 4.40753 | 10862 ft | 339 kts | 352° |
| 2026-04-17 21:11 | 52.47045 | 4.40377 | 11296 ft | 344 kts | 352° |
| 2026-04-17 21:12 | 52.49410 | 4.40001 | 11807 ft | 347 kts | 352° |
| 2026-04-17 21:12 | 52.51848 | 4.39612 | 12311 ft | 350 kts | 352° |
| 2026-04-17 21:12 | 52.54266 | 4.39225 | 12808 ft | 353 kts | 352° |
| 2026-04-17 21:12 | 52.56727 | 4.38831 | 13317 ft | 357 kts | 352° |
| 2026-04-17 21:13 | 52.59207 | 4.38434 | 13828 ft | 360 kts | 352° |
| 2026-04-17 21:13 | 52.61707 | 4.38033 | 14292 ft | 362 kts | 352° |
| 2026-04-17 21:13 | 52.64222 | 4.37630 | 14752 ft | 365 kts | 352° |
| 2026-04-17 21:13 | 52.66757 | 4.37224 | 15208 ft | 367 kts | 352° |
| 2026-04-17 21:14 | 52.69315 | 4.36815 | 15662 ft | 370 kts | 352° |
| 2026-04-17 21:14 | 52.71851 | 4.36118 | 16057 ft | 369 kts | 339° |
| 2026-04-17 21:14 | 52.74119 | 4.34249 | 16529 ft | 364 kts | 320° |
| 2026-04-17 21:14 | 52.75896 | 4.31326 | 16970 ft | 359 kts | 302° |
| 2026-04-17 21:15 | 52.77003 | 4.27672 | 17440 ft | 355 kts | 286° |
| 2026-04-17 21:15 | 52.77694 | 4.23754 | 17896 ft | 356 kts | 282° |
| 2026-04-17 21:15 | 52.78327 | 4.19779 | 18378 ft | 358 kts | 282° |
| 2026-04-17 21:15 | 52.79008 | 4.15797 | 18803 ft | 360 kts | 283° |
| 2026-04-17 21:16 | 52.79746 | 4.11823 | 19227 ft | 362 kts | 284° |
| 2026-04-17 21:16 | 52.80520 | 4.07855 | 19641 ft | 364 kts | 284° |
| 2026-04-17 21:16 | 52.81307 | 4.03909 | 20059 ft | 366 kts | 285° |
| 2026-04-17 21:16 | 52.82111 | 3.99904 | 20486 ft | 368 kts | 284° |
| 2026-04-17 21:17 | 52.82922 | 3.95857 | 20905 ft | 370 kts | 284° |
| 2026-04-17 21:17 | 52.83731 | 3.91805 | 21328 ft | 372 kts | 284° |
| 2026-04-17 21:17 | 52.84543 | 3.87728 | 21742 ft | 374 kts | 284° |
| 2026-04-17 21:17 | 52.85357 | 3.83622 | 22168 ft | 376 kts | 284° |
| 2026-04-17 21:18 | 52.86172 | 3.79502 | 22596 ft | 378 kts | 284° |
| 2026-04-17 21:18 | 52.86992 | 3.75351 | 23027 ft | 380 kts | 283° |
| 2026-04-17 21:18 | 52.87814 | 3.71173 | 23440 ft | 383 kts | 283° |
| 2026-04-17 21:18 | 52.88642 | 3.66961 | 23854 ft | 385 kts | 283° |
| 2026-04-17 21:19 | 52.89468 | 3.62747 | 24217 ft | 386 kts | 283° |
| 2026-04-17 21:19 | 52.90298 | 3.58504 | 24594 ft | 388 kts | 283° |
| 2026-04-17 21:19 | 52.91132 | 3.54234 | 24958 ft | 390 kts | 283° |
| 2026-04-17 21:19 | 52.91966 | 3.49953 | 25321 ft | 391 kts | 283° |
| 2026-04-17 21:20 | 52.92800 | 3.45656 | 25676 ft | 393 kts | 283° |
| 2026-04-17 21:20 | 52.93637 | 3.41336 | 26029 ft | 395 kts | 283° |
| 2026-04-17 21:20 | 52.94478 | 3.36988 | 26384 ft | 396 kts | 282° |
| 2026-04-17 21:20 | 52.95320 | 3.32625 | 26740 ft | 398 kts | 282° |
| 2026-04-17 21:21 | 52.96163 | 3.28243 | 27082 ft | 400 kts | 282° |
| 2026-04-17 21:21 | 52.97009 | 3.23840 | 27429 ft | 402 kts | 282° |
| 2026-04-17 21:21 | 52.97858 | 3.19410 | 27758 ft | 403 kts | 282° |
| 2026-04-17 21:21 | 52.98707 | 3.14968 | 28104 ft | 405 kts | 282° |
| 2026-04-17 21:22 | 52.99559 | 3.10497 | 28433 ft | 407 kts | 282° |
| 2026-04-17 21:22 | 53.00414 | 3.06000 | 28766 ft | 409 kts | 282° |
| 2026-04-17 21:22 | 53.01271 | 3.01485 | 29094 ft | 411 kts | 282° |
| 2026-04-17 21:22 | 53.02128 | 2.96955 | 29407 ft | 412 kts | 282° |
| 2026-04-17 21:23 | 53.02988 | 2.92402 | 29702 ft | 414 kts | 282° |
| 2026-04-17 21:23 | 53.03851 | 2.87821 | 30027 ft | 416 kts | 282° |
| 2026-04-17 21:23 | 53.04716 | 2.83219 | 30333 ft | 418 kts | 281° |
| 2026-04-17 21:23 | 53.05580 | 2.78609 | 30609 ft | 419 kts | 281° |
| 2026-04-17 21:24 | 53.06449 | 2.73966 | 30891 ft | 420 kts | 281° |
| 2026-04-17 21:24 | 53.07318 | 2.69309 | 31177 ft | 422 kts | 281° |
| 2026-04-17 21:24 | 53.08186 | 2.64643 | 31447 ft | 423 kts | 281° |
| 2026-04-17 21:24 | 53.09057 | 2.59948 | 31742 ft | 425 kts | 281° |
| 2026-04-17 21:25 | 53.09929 | 2.55240 | 32028 ft | 426 kts | 281° |
| 2026-04-17 21:25 | 53.10715 | 2.50549 | 32276 ft | 425 kts | 277° |
| 2026-04-17 21:25 | 53.11267 | 2.45725 | 32523 ft | 422 kts | 272° |
| 2026-04-17 21:25 | 53.11646 | 2.40880 | 32767 ft | 423 kts | 272° |
| 2026-04-17 21:26 | 53.12037 | 2.36025 | 32978 ft | 424 kts | 272° |
| 2026-04-17 21:26 | 53.12439 | 2.31143 | 33183 ft | 425 kts | 272° |
| 2026-04-17 21:26 | 53.12841 | 2.26268 | 33347 ft | 426 kts | 272° |
| 2026-04-17 21:26 | 53.13240 | 2.21373 | 33510 ft | 427 kts | 271° |
| 2026-04-17 21:27 | 53.13637 | 2.16467 | 33667 ft | 427 kts | 271° |
| 2026-04-17 21:27 | 53.14031 | 2.11565 | 33858 ft | 426 kts | 271° |
| 2026-04-17 21:27 | 53.14422 | 2.06668 | 34066 ft | 426 kts | 271° |
| 2026-04-17 21:27 | 53.14803 | 2.01870 | 34238 ft | 425 kts | 271° |
| 2026-04-17 21:28 | 53.15191 | 1.96954 | 34388 ft | 425 kts | 271° |
| 2026-04-17 21:28 | 53.15573 | 1.92071 | 34538 ft | 425 kts | 271° |
| 2026-04-17 21:28 | 53.15953 | 1.87197 | 34670 ft | 425 kts | 271° |
| 2026-04-17 21:28 | 53.16332 | 1.82305 | 34809 ft | 425 kts | 271° |
| 2026-04-17 21:29 | 53.16709 | 1.77420 | 34968 ft | 425 kts | 271° |
| 2026-04-17 21:29 | 53.17085 | 1.72531 | 35085 ft | 425 kts | 271° |
| 2026-04-17 21:29 | 53.17457 | 1.67649 | 35224 ft | 425 kts | 271° |
| 2026-04-17 21:29 | 53.17827 | 1.62769 | 35351 ft | 425 kts | 271° |
| 2026-04-17 21:30 | 53.18201 | 1.57815 | 35480 ft | 425 kts | 271° |
| 2026-04-17 21:30 | 53.18563 | 1.52990 | 35611 ft | 425 kts | 271° |
| 2026-04-17 21:30 | 53.18928 | 1.48099 | 35755 ft | 425 kts | 271° |
| 2026-04-17 21:30 | 53.19290 | 1.43218 | 35870 ft | 425 kts | 271° |
| 2026-04-17 21:31 | 53.19651 | 1.38322 | 35996 ft | 425 kts | 271° |
| 2026-04-17 21:31 | 53.20010 | 1.33431 | 36120 ft | 425 kts | 271° |
| 2026-04-17 21:31 | 53.20723 | 1.23641 | 36132 ft | 424 kts | 271° |
| 2026-04-17 21:32 | 53.21425 | 1.13874 | 36127 ft | 423 kts | 270° |
| 2026-04-17 21:32 | 53.22118 | 1.04110 | 36129 ft | 423 kts | 270° |
| 2026-04-17 21:33 | 53.22804 | 0.94345 | 36125 ft | 423 kts | 270° |
| 2026-04-17 21:33 | 53.23481 | 0.84574 | 36118 ft | 423 kts | 270° |
| 2026-04-17 21:34 | 53.24149 | 0.74816 | 36119 ft | 423 kts | 270° |
| 2026-04-17 21:35 | 53.25136 | 0.60170 | 36116 ft | 423 kts | 270° |
| 2026-04-17 21:35 | 53.25784 | 0.50413 | 36115 ft | 423 kts | 270° |
| 2026-04-17 21:36 | 53.26424 | 0.40646 | 36110 ft | 422 kts | 270° |
| 2026-04-17 21:36 | 53.27055 | 0.30902 | 36107 ft | 422 kts | 270° |
| 2026-04-17 21:37 | 53.27678 | 0.21136 | 36107 ft | 422 kts | 270° |
| 2026-04-17 21:37 | 53.28294 | 0.11362 | 36098 ft | 422 kts | 269° |
| 2026-04-17 21:38 | 53.28908 | 0.01596 | 36101 ft | 423 kts | 270° |
| 2026-04-17 21:38 | 53.29890 | -0.08176 | 36096 ft | 427 kts | 274° |
| 2026-04-17 21:39 | 53.30980 | -0.17931 | 36114 ft | 426 kts | 273° |
| 2026-04-17 21:39 | 53.32006 | -0.27711 | 36105 ft | 426 kts | 273° |
| 2026-04-17 21:40 | 53.33002 | -0.37489 | 36101 ft | 426 kts | 273° |
| 2026-04-17 21:40 | 53.33987 | -0.47266 | 36102 ft | 426 kts | 272° |
| 2026-04-17 21:41 | 53.34965 | -0.57055 | 36099 ft | 426 kts | 272° |
| 2026-04-17 21:41 | 53.35934 | -0.66835 | 36098 ft | 426 kts | 272° |
| 2026-04-17 21:42 | 53.36899 | -0.76635 | 36096 ft | 426 kts | 272° |
| 2026-04-17 21:42 | 53.37856 | -0.86440 | 36093 ft | 426 kts | 272° |
| 2026-04-17 21:43 | 53.38807 | -0.96254 | 36095 ft | 427 kts | 272° |
| 2026-04-17 21:43 | 53.39750 | -1.06107 | 36095 ft | 427 kts | 272° |
| 2026-04-17 21:44 | 53.40534 | -1.14364 | 36091 ft | 428 kts | 272° |
| 2026-04-17 21:44 | 53.41457 | -1.24151 | 36094 ft | 428 kts | 272° |
| 2026-04-17 21:45 | 53.42379 | -1.34038 | 36092 ft | 429 kts | 272° |
| 2026-04-17 21:45 | 53.43292 | -1.43924 | 36087 ft | 429 kts | 272° |
| 2026-04-17 21:46 | 53.44205 | -1.53910 | 36089 ft | 430 kts | 272° |
| 2026-04-17 21:46 | 53.45110 | -1.63885 | 36093 ft | 431 kts | 272° |
| 2026-04-17 21:47 | 53.46003 | -1.73819 | 36097 ft | 431 kts | 272° |
| 2026-04-17 21:47 | 53.46890 | -1.83790 | 36089 ft | 432 kts | 272° |
| 2026-04-17 21:48 | 53.47767 | -1.93776 | 36095 ft | 433 kts | 272° |
| 2026-04-17 21:48 | 53.48641 | -2.03810 | 36092 ft | 434 kts | 272° |
| 2026-04-17 21:49 | 53.49507 | -2.13848 | 36095 ft | 435 kts | 272° |
| 2026-04-17 21:49 | 53.50367 | -2.23927 | 36089 ft | 436 kts | 272° |
| 2026-04-17 21:50 | 53.51222 | -2.34031 | 36101 ft | 437 kts | 272° |
| 2026-04-17 21:50 | 53.52071 | -2.44165 | 36093 ft | 438 kts | 272° |
| 2026-04-17 21:51 | 53.52914 | -2.54341 | 36105 ft | 439 kts | 272° |
| 2026-04-17 21:51 | 53.53749 | -2.64529 | 36101 ft | 439 kts | 272° |
| 2026-04-17 21:52 | 53.54575 | -2.74722 | 36098 ft | 440 kts | 272° |
| 2026-04-17 21:52 | 53.55393 | -2.84918 | 36096 ft | 440 kts | 272° |
| 2026-04-17 21:53 | 53.56204 | -2.95148 | 36097 ft | 440 kts | 272° |
| 2026-04-17 21:53 | 53.57000 | -3.05298 | 36091 ft | 440 kts | 272° |
| 2026-04-17 21:54 | 53.57797 | -3.15589 | 36089 ft | 440 kts | 272° |
| 2026-04-17 21:54 | 53.58580 | -3.25806 | 36088 ft | 440 kts | 272° |
| 2026-04-17 21:55 | 53.59354 | -3.36019 | 36073 ft | 440 kts | 272° |
| 2026-04-17 21:55 | 53.60119 | -3.46242 | 36084 ft | 440 kts | 272° |
| 2026-04-17 21:56 | 53.60871 | -3.56404 | 36083 ft | 439 kts | 272° |
| 2026-04-17 21:56 | 53.61605 | -3.66630 | 36066 ft | 439 kts | 270° |
| 2026-04-17 21:57 | 53.62022 | -3.76863 | 36061 ft | 438 kts | 269° |
| 2026-04-17 21:57 | 53.62455 | -3.87105 | 36060 ft | 438 kts | 269° |
| 2026-04-17 21:58 | 53.62873 | -3.97333 | 36060 ft | 438 kts | 269° |
| 2026-04-17 21:58 | 53.63280 | -4.07583 | 36053 ft | 438 kts | 269° |
| 2026-04-17 21:59 | 53.63676 | -4.17835 | 36049 ft | 439 kts | 269° |
| 2026-04-17 21:59 | 53.64064 | -4.28119 | 36047 ft | 439 kts | 269° |
| 2026-04-17 22:00 | 53.64444 | -4.38398 | 36043 ft | 440 kts | 269° |
| 2026-04-17 22:00 | 53.64816 | -4.48692 | 36043 ft | 440 kts | 269° |
| 2026-04-17 22:01 | 53.65179 | -4.58993 | 36042 ft | 441 kts | 269° |
| 2026-04-17 22:01 | 53.65534 | -4.69321 | 36042 ft | 441 kts | 269° |
| 2026-04-17 22:02 | 53.65879 | -4.79647 | 36038 ft | 441 kts | 269° |
| 2026-04-17 22:02 | 53.66215 | -4.89923 | 36038 ft | 442 kts | 269° |
| 2026-04-17 22:03 | 53.66549 | -5.00273 | 36038 ft | 442 kts | 269° |
| 2026-04-17 22:03 | 53.66875 | -5.10634 | 36035 ft | 442 kts | 269° |
| 2026-04-17 22:04 | 53.67189 | -5.21023 | 36031 ft | 443 kts | 269° |
| 2026-04-17 22:04 | 53.67487 | -5.31401 | 36034 ft | 443 kts | 268° |
| 2026-04-17 22:05 | 53.67776 | -5.41771 | 36032 ft | 443 kts | 268° |
| 2026-04-17 22:05 | 53.68055 | -5.52170 | 36034 ft | 443 kts | 268° |
| 2026-04-17 22:06 | 53.68242 | -5.62490 | 36033 ft | 443 kts | 268° |
| 2026-04-17 22:06 | 53.68424 | -5.72887 | 36030 ft | 443 kts | 268° |
| 2026-04-17 22:07 | 53.68621 | -5.83375 | 36026 ft | 443 kts | 268° |
| 2026-04-17 22:07 | 53.68811 | -5.93715 | 36024 ft | 443 kts | 268° |
| 2026-04-17 22:08 | 53.68993 | -6.04120 | 36029 ft | 443 kts | 268° |
| 2026-04-17 22:08 | 53.69160 | -6.14438 | 36027 ft | 443 kts | 268° |
| 2026-04-17 22:09 | 53.69315 | -6.24847 | 36029 ft | 443 kts | 267° |
| 2026-04-17 22:09 | 53.69461 | -6.35228 | 36027 ft | 443 kts | 267° |
| 2026-04-17 22:10 | 53.69597 | -6.45620 | 36024 ft | 443 kts | 267° |
| 2026-04-17 22:10 | 53.69725 | -6.56024 | 36021 ft | 443 kts | 267° |
| 2026-04-17 22:11 | 53.69844 | -6.66432 | 36012 ft | 443 kts | 267° |
| 2026-04-17 22:11 | 53.69953 | -6.76778 | 36013 ft | 444 kts | 267° |
| 2026-04-17 22:12 | 53.70054 | -6.87206 | 36008 ft | 444 kts | 267° |
| 2026-04-17 22:12 | 53.70146 | -6.97618 | 36000 ft | 444 kts | 267° |
| 2026-04-17 22:13 | 53.70229 | -7.08053 | 36021 ft | 445 kts | 267° |
| 2026-04-17 22:13 | 53.70305 | -7.18488 | 36021 ft | 445 kts | 267° |
| 2026-04-17 22:14 | 53.70369 | -7.28944 | 36020 ft | 445 kts | 267° |
| 2026-04-17 22:14 | 53.70425 | -7.39391 | 36008 ft | 445 kts | 267° |
| 2026-04-17 22:15 | 53.70472 | -7.49866 | 36003 ft | 446 kts | 267° |
| 2026-04-17 22:15 | 53.70510 | -7.60338 | 36020 ft | 446 kts | 266° |
| 2026-04-17 22:16 | 53.70538 | -7.70808 | 36005 ft | 446 kts | 266° |
| 2026-04-17 22:16 | 53.70557 | -7.81219 | 36006 ft | 446 kts | 266° |
| 2026-04-17 22:17 | 53.70568 | -7.91688 | 36012 ft | 446 kts | 266° |
| 2026-04-17 22:17 | 53.70571 | -8.02153 | 36009 ft | 446 kts | 266° |
| 2026-04-17 22:18 | 53.70566 | -8.10400 | 36015 ft | 446 kts | 266° |
| 2026-04-17 22:18 | 53.70556 | -8.18344 | 36011 ft | 446 kts | 266° |
| 2026-04-17 22:19 | 53.70533 | -8.28807 | 36015 ft | 446 kts | 266° |
| 2026-04-17 22:19 | 53.70502 | -8.39282 | 36010 ft | 446 kts | 266° |
| 2026-04-17 22:20 | 53.70462 | -8.49678 | 36012 ft | 446 kts | 266° |
| 2026-04-17 22:20 | 53.70413 | -8.60162 | 36011 ft | 446 kts | 266° |
| 2026-04-17 22:21 | 53.70354 | -8.70646 | 36012 ft | 446 kts | 266° |
| 2026-04-17 22:21 | 53.70287 | -8.81126 | 36011 ft | 446 kts | 266° |
| 2026-04-17 22:22 | 53.70209 | -8.91618 | 36009 ft | 446 kts | 266° |
| 2026-04-17 22:22 | 53.70124 | -9.02032 | 36009 ft | 447 kts | 266° |
| 2026-04-17 22:23 | 53.70029 | -9.12526 | 36010 ft | 447 kts | 266° |
| 2026-04-17 22:23 | 53.69924 | -9.23014 | 36013 ft | 448 kts | 266° |
| 2026-04-17 22:24 | 53.69810 | -9.33598 | 36012 ft | 448 kts | 266° |
| 2026-04-17 22:24 | 53.69688 | -9.44051 | 36018 ft | 448 kts | 265° |
| 2026-04-17 22:25 | 53.69556 | -9.54555 | 36021 ft | 449 kts | 265° |
| 2026-04-17 22:25 | 53.69414 | -9.65109 | 36025 ft | 449 kts | 265° |
| 2026-04-17 22:26 | 53.69263 | -9.75637 | 36023 ft | 449 kts | 265° |
| 2026-04-17 22:26 | 53.69103 | -9.86180 | 36031 ft | 449 kts | 265° |
| 2026-04-17 22:27 | 53.68932 | -9.96733 | 36032 ft | 450 kts | 265° |
| 2026-04-17 22:27 | 53.68755 | -10.07231 | 36031 ft | 450 kts | 265° |
| 2026-04-17 22:28 | 53.68567 | -10.17788 | 36029 ft | 450 kts | 265° |
| 2026-04-17 22:28 | 53.68370 | -10.28304 | 36035 ft | 450 kts | 265° |
| 2026-04-17 22:29 | 53.68163 | -10.38862 | 36032 ft | 450 kts | 265° |
| 2026-04-17 22:29 | 53.67947 | -10.49416 | 36037 ft | 450 kts | 265° |
| 2026-04-17 22:30 | 53.67720 | -10.59989 | 36037 ft | 451 kts | 265° |
| 2026-04-17 22:30 | 53.67486 | -10.70548 | 36036 ft | 451 kts | 265° |
| 2026-04-17 22:31 | 53.67241 | -10.81113 | 36035 ft | 451 kts | 265° |
| 2026-04-17 22:31 | 53.66988 | -10.91689 | 36035 ft | 451 kts | 264° |
| 2026-04-17 22:32 | 53.66726 | -11.02197 | 36033 ft | 451 kts | 264° |
| 2026-04-17 22:32 | 53.66454 | -11.12768 | 36035 ft | 451 kts | 264° |
| 2026-04-17 22:33 | 53.66171 | -11.23344 | 36044 ft | 451 kts | 264° |
| 2026-04-17 22:33 | 53.65880 | -11.33919 | 36045 ft | 451 kts | 264° |
| 2026-04-17 22:34 | 53.65579 | -11.44521 | 36050 ft | 452 kts | 264° |
| 2026-04-17 22:34 | 53.65271 | -11.55039 | 36049 ft | 452 kts | 264° |
| 2026-04-17 22:35 | 53.64951 | -11.65616 | 36050 ft | 452 kts | 264° |
| 2026-04-17 22:35 | 53.64622 | -11.76217 | 36055 ft | 452 kts | 264° |
| 2026-04-17 22:36 | 53.64283 | -11.86799 | 36059 ft | 452 kts | 264° |
| 2026-04-17 22:36 | 53.63936 | -11.97388 | 36059 ft | 452 kts | 264° |
| 2026-04-17 22:37 | 53.63580 | -12.07912 | 36063 ft | 452 kts | 264° |
| 2026-04-17 22:37 | 53.63214 | -12.18492 | 36067 ft | 453 kts | 264° |
| 2026-04-17 22:38 | 53.62838 | -12.29085 | 36069 ft | 453 kts | 264° |
| 2026-04-17 22:38 | 53.62452 | -12.39677 | 36067 ft | 453 kts | 264° |
| 2026-04-17 22:39 | 53.62057 | -12.50276 | 36071 ft | 453 kts | 264° |
| 2026-04-17 22:39 | 53.61446 | -12.66174 | 36077 ft | 453 kts | 263° |
| 2026-04-17 22:40 | 53.61030 | -12.76701 | 36079 ft | 453 kts | 263° |
| 2026-04-17 22:40 | 53.60603 | -12.87275 | 36080 ft | 453 kts | 263° |
| 2026-04-17 22:41 | 53.60166 | -12.97870 | 36083 ft | 453 kts | 263° |
| 2026-04-17 22:41 | 53.59719 | -13.08462 | 36083 ft | 453 kts | 263° |
| 2026-04-17 22:42 | 53.59265 | -13.18987 | 36085 ft | 453 kts | 263° |
| 2026-04-17 22:42 | 53.58800 | -13.29565 | 36093 ft | 453 kts | 263° |
| 2026-04-17 22:43 | 53.58325 | -13.40150 | 36095 ft | 453 kts | 263° |
| 2026-04-17 22:43 | 53.57841 | -13.50741 | 36094 ft | 454 kts | 263° |
| 2026-04-17 22:44 | 53.57347 | -13.61332 | 36095 ft | 454 kts | 263° |
| 2026-04-17 22:44 | 53.56843 | -13.71923 | 36100 ft | 454 kts | 263° |
| 2026-04-17 22:45 | 53.56329 | -13.82533 | 36105 ft | 454 kts | 263° |
| 2026-04-17 22:45 | 53.55806 | -13.93129 | 36108 ft | 454 kts | 263° |
| 2026-04-17 22:46 | 53.55278 | -14.03655 | 36109 ft | 455 kts | 263° |
| 2026-04-17 22:46 | 53.54736 | -14.14248 | 36116 ft | 455 kts | 263° |
| 2026-04-17 22:47 | 53.54184 | -14.24861 | 36118 ft | 455 kts | 262° |
| 2026-04-17 22:47 | 53.53622 | -14.35477 | 36116 ft | 455 kts | 262° |
| 2026-04-17 22:48 | 53.53051 | -14.46099 | 36123 ft | 456 kts | 262° |
| 2026-04-17 22:48 | 53.52470 | -14.56710 | 36123 ft | 456 kts | 262° |
| 2026-04-17 22:49 | 53.51884 | -14.67318 | 36130 ft | 456 kts | 262° |
| 2026-04-17 22:49 | 53.51293 | -14.77934 | 36135 ft | 456 kts | 262° |
| 2026-04-17 22:50 | 53.50692 | -14.88562 | 36134 ft | 457 kts | 262° |
| 2026-04-17 22:50 | 53.50087 | -14.99108 | 36137 ft | 457 kts | 262° |
| 2026-04-17 22:51 | 53.49950 | -15.09804 | 36136 ft | 459 kts | 270° |
| 2026-04-17 22:51 | 53.50335 | -15.20533 | 36139 ft | 460 kts | 270° |
| 2026-04-17 22:52 | 53.50612 | -15.31269 | 36140 ft | 460 kts | 269° |
| 2026-04-17 22:52 | 53.50814 | -15.42015 | 36149 ft | 460 kts | 269° |
| 2026-04-17 22:53 | 53.50992 | -15.52687 | 36152 ft | 460 kts | 269° |
| 2026-04-17 22:53 | 53.51164 | -15.63461 | 36157 ft | 460 kts | 269° |
| 2026-04-17 22:54 | 53.51326 | -15.74215 | 36149 ft | 460 kts | 269° |
| 2026-04-17 22:54 | 53.51479 | -15.84983 | 36162 ft | 461 kts | 269° |
| 2026-04-17 22:55 | 53.51623 | -15.95737 | 36156 ft | 461 kts | 269° |
| 2026-04-17 22:55 | 53.51755 | -16.06434 | 36159 ft | 461 kts | 269° |
| 2026-04-17 22:56 | 53.51880 | -16.17210 | 36162 ft | 461 kts | 268° |
| 2026-04-17 22:56 | 53.51994 | -16.27991 | 36165 ft | 461 kts | 268° |
| 2026-04-17 22:57 | 53.52099 | -16.38782 | 36167 ft | 462 kts | 268° |
| 2026-04-17 22:57 | 53.52194 | -16.49569 | 36173 ft | 462 kts | 268° |
| 2026-04-17 22:58 | 53.52280 | -16.60367 | 36174 ft | 462 kts | 268° |
| 2026-04-17 22:58 | 53.52356 | -16.71184 | 36174 ft | 462 kts | 268° |
| 2026-04-17 22:59 | 53.52422 | -16.81908 | 36177 ft | 462 kts | 268° |
| 2026-04-17 22:59 | 53.52478 | -16.92735 | 36182 ft | 462 kts | 268° |
| 2026-04-17 23:00 | 53.52525 | -17.03549 | 36180 ft | 463 kts | 268° |
| 2026-04-17 23:00 | 53.52562 | -17.14368 | 36183 ft | 463 kts | 268° |
| 2026-04-17 23:01 | 53.52589 | -17.25129 | 36180 ft | 463 kts | 268° |
| 2026-04-17 23:01 | 53.52607 | -17.35958 | 36180 ft | 463 kts | 268° |
| 2026-04-17 23:02 | 53.52615 | -17.46798 | 36184 ft | 464 kts | 267° |
| 2026-04-17 23:02 | 53.52613 | -17.57647 | 36186 ft | 464 kts | 267° |
| 2026-04-17 23:03 | 53.52601 | -17.68491 | 36188 ft | 464 kts | 267° |
| 2026-04-17 23:03 | 53.52583 | -17.77510 | 36188 ft | 464 kts | 267° |
| 2026-04-17 23:04 | 53.52551 | -17.88368 | 36205 ft | 463 kts | 267° |
| 2026-04-17 23:04 | 53.52512 | -17.99216 | 36193 ft | 462 kts | 266° |
| 2026-04-17 23:05 | 53.52464 | -18.09974 | 36194 ft | 460 kts | 266° |
| 2026-04-17 23:05 | 53.52405 | -18.20736 | 36197 ft | 461 kts | 266° |
| 2026-04-17 23:06 | 53.52334 | -18.31519 | 36197 ft | 461 kts | 266° |
| 2026-04-17 23:06 | 53.52258 | -18.42200 | 36198 ft | 459 kts | 266° |
| 2026-04-17 23:07 | 53.52172 | -18.52933 | 36200 ft | 459 kts | 266° |
| 2026-04-17 23:07 | 53.52073 | -18.63654 | 36199 ft | 459 kts | 266° |
| 2026-04-17 23:08 | 53.51968 | -18.74355 | 36199 ft | 457 kts | 266° |
| 2026-04-17 23:08 | 53.51849 | -18.85065 | 36203 ft | 459 kts | 266° |
| 2026-04-17 23:09 | 53.51725 | -18.95787 | 36201 ft | 459 kts | 266° |
| 2026-04-17 23:09 | 53.51590 | -19.06513 | 36200 ft | 460 kts | 266° |
| 2026-04-17 23:10 | 53.51443 | -19.17259 | 36206 ft | 459 kts | 266° |
| 2026-04-17 23:10 | 53.51290 | -19.27914 | 36203 ft | 459 kts | 266° |
| 2026-04-17 23:11 | 53.51126 | -19.38642 | 36202 ft | 459 kts | 266° |
| 2026-04-17 23:11 | 53.50953 | -19.49393 | 36203 ft | 459 kts | 266° |
| 2026-04-17 23:12 | 53.50768 | -19.60130 | 36204 ft | 459 kts | 266° |
| 2026-04-17 23:12 | 53.50575 | -19.70799 | 36205 ft | 459 kts | 266° |
| 2026-04-17 23:13 | 53.50374 | -19.81518 | 36205 ft | 458 kts | 266° |
| 2026-04-17 23:13 | 53.50167 | -19.92240 | 36207 ft | 459 kts | 266° |
| 2026-04-17 23:14 | 53.50478 | -20.02943 | 36210 ft | 461 kts | 278° |
| 2026-04-17 23:14 | 53.51917 | -20.13461 | 36208 ft | 462 kts | 281° |
| 2026-04-17 23:15 | 53.53419 | -20.23976 | 36208 ft | 462 kts | 281° |
| 2026-04-17 23:15 | 53.54906 | -20.34396 | 36210 ft | 462 kts | 282° |
| 2026-04-17 23:16 | 53.56400 | -20.44920 | 36215 ft | 462 kts | 282° |
| 2026-04-17 23:16 | 53.57883 | -20.55442 | 36210 ft | 461 kts | 281° |
| 2026-04-17 23:17 | 53.59347 | -20.65936 | 36206 ft | 461 kts | 281° |
| 2026-04-17 23:17 | 53.60800 | -20.76452 | 36207 ft | 461 kts | 281° |
| 2026-04-17 23:18 | 53.62242 | -20.86959 | 36204 ft | 460 kts | 281° |
| 2026-04-17 23:18 | 53.63673 | -20.97468 | 36207 ft | 460 kts | 281° |
| 2026-04-17 23:19 | 53.65097 | -21.07991 | 36205 ft | 460 kts | 281° |
| 2026-04-17 23:19 | 53.66501 | -21.18446 | 36205 ft | 460 kts | 281° |
| 2026-04-17 23:20 | 53.67904 | -21.28970 | 36210 ft | 460 kts | 281° |
| 2026-04-17 23:20 | 53.69299 | -21.39504 | 36206 ft | 460 kts | 281° |
| 2026-04-17 23:21 | 53.70683 | -21.50040 | 36206 ft | 459 kts | 281° |
| 2026-04-17 23:21 | 53.72055 | -21.60559 | 36203 ft | 459 kts | 281° |
| 2026-04-17 23:22 | 53.73418 | -21.71080 | 36203 ft | 458 kts | 281° |
| 2026-04-17 23:22 | 53.74771 | -21.81615 | 36201 ft | 458 kts | 281° |
| 2026-04-17 23:23 | 53.76106 | -21.92080 | 36203 ft | 458 kts | 281° |
| 2026-04-17 23:23 | 53.77438 | -22.02595 | 36203 ft | 457 kts | 281° |
| 2026-04-17 23:24 | 53.78763 | -22.13142 | 36207 ft | 457 kts | 281° |
| 2026-04-17 23:24 | 53.80075 | -22.23662 | 36201 ft | 456 kts | 281° |
| 2026-04-17 23:25 | 53.81375 | -22.34172 | 36205 ft | 456 kts | 281° |
| 2026-04-17 23:25 | 53.82656 | -22.44602 | 36204 ft | 455 kts | 281° |
| 2026-04-17 23:26 | 53.83935 | -22.55097 | 36204 ft | 454 kts | 281° |
| 2026-04-17 23:26 | 53.85201 | -22.65572 | 36200 ft | 454 kts | 281° |
| 2026-04-17 23:27 | 53.86458 | -22.76047 | 36200 ft | 453 kts | 281° |
| 2026-04-17 23:27 | 53.87703 | -22.86507 | 36197 ft | 452 kts | 281° |
| 2026-04-17 23:28 | 53.88929 | -22.96895 | 36193 ft | 452 kts | 281° |
| 2026-04-17 23:28 | 53.90153 | -23.07344 | 36191 ft | 451 kts | 281° |
| 2026-04-17 23:29 | 53.91367 | -23.17789 | 36194 ft | 450 kts | 281° |
| 2026-04-17 23:29 | 53.92569 | -23.28216 | 36191 ft | 450 kts | 280° |
| 2026-04-17 23:30 | 53.93761 | -23.38634 | 36190 ft | 449 kts | 280° |
| 2026-04-17 23:30 | 53.94941 | -23.49040 | 36185 ft | 449 kts | 280° |
| 2026-04-17 23:31 | 53.96106 | -23.59398 | 36184 ft | 448 kts | 280° |
| 2026-04-17 23:31 | 53.96673 | -23.64550 | 36135 ft | 434 kts | 282° |
| 2026-04-17 23:31 | 53.97223 | -23.69513 | 36187 ft | 425 kts | 282° |
| 2026-04-17 23:32 | 53.98324 | -23.79393 | 36182 ft | 427 kts | 282° |
| 2026-04-17 23:32 | 53.99416 | -23.89307 | 36181 ft | 426 kts | 282° |
| 2026-04-17 23:33 | 54.00487 | -23.99134 | 36178 ft | 425 kts | 282° |
| 2026-04-17 23:33 | 54.01556 | -24.09024 | 36178 ft | 425 kts | 282° |
| 2026-04-17 23:34 | 54.02616 | -24.18912 | 36173 ft | 424 kts | 281° |
| 2026-04-17 23:34 | 54.03667 | -24.28798 | 36174 ft | 424 kts | 281° |
| 2026-04-17 23:35 | 54.04707 | -24.38659 | 36170 ft | 424 kts | 281° |
| 2026-04-17 23:35 | 54.05741 | -24.48553 | 36170 ft | 423 kts | 281° |
| 2026-04-17 23:36 | 54.06757 | -24.58351 | 36171 ft | 423 kts | 281° |
| 2026-04-17 23:36 | 54.07774 | -24.68232 | 36167 ft | 423 kts | 281° |
| 2026-04-17 23:37 | 54.08780 | -24.78102 | 36166 ft | 423 kts | 281° |
| 2026-04-17 23:37 | 54.09779 | -24.87984 | 36168 ft | 422 kts | 281° |
| 2026-04-17 23:38 | 54.10767 | -24.97844 | 36167 ft | 422 kts | 281° |
| 2026-04-17 23:38 | 54.11747 | -25.07703 | 36163 ft | 422 kts | 281° |
| 2026-04-17 23:39 | 54.12713 | -25.17501 | 36160 ft | 421 kts | 281° |
| 2026-04-17 23:39 | 54.13676 | -25.27357 | 36162 ft | 421 kts | 281° |
| 2026-04-17 23:40 | 54.14629 | -25.37201 | 36163 ft | 421 kts | 280° |
| 2026-04-17 23:40 | 54.15574 | -25.47051 | 36161 ft | 420 kts | 280° |
| 2026-04-17 23:41 | 54.16511 | -25.56904 | 36164 ft | 420 kts | 280° |
| 2026-04-17 23:41 | 54.17439 | -25.66750 | 36158 ft | 420 kts | 280° |
| 2026-04-17 23:42 | 54.18359 | -25.76591 | 36159 ft | 420 kts | 280° |
| 2026-04-17 23:42 | 54.19271 | -25.86451 | 36161 ft | 419 kts | 280° |
| 2026-04-17 23:43 | 54.20166 | -25.96222 | 36156 ft | 419 kts | 280° |
| 2026-04-17 23:43 | 54.21059 | -26.06056 | 36155 ft | 419 kts | 279° |
| 2026-04-17 23:44 | 54.21942 | -26.15872 | 36157 ft | 419 kts | 279° |
| 2026-04-17 23:44 | 54.22697 | -26.24333 | 36158 ft | 418 kts | 279° |
| 2026-04-17 23:45 | 54.23992 | -26.39029 | 36157 ft | 418 kts | 279° |
| 2026-04-17 23:46 | 54.24813 | -26.48462 | 36156 ft | 418 kts | 279° |
| 2026-04-17 23:46 | 54.25528 | -26.56739 | 36150 ft | 418 kts | 279° |
| 2026-04-17 23:47 | 54.26372 | -26.66579 | 36156 ft | 417 kts | 279° |
| 2026-04-17 23:47 | 54.27205 | -26.76418 | 36157 ft | 417 kts | 279° |
| 2026-04-17 23:48 | 54.27997 | -26.85863 | 36154 ft | 417 kts | 279° |
| 2026-04-17 23:48 | 54.28814 | -26.95691 | 36151 ft | 417 kts | 279° |
| 2026-04-17 23:49 | 54.29486 | -27.03864 | 36152 ft | 416 kts | 279° |
| 2026-04-17 23:49 | 54.30283 | -27.13638 | 36153 ft | 416 kts | 278° |
| 2026-04-17 23:50 | 54.31074 | -27.23448 | 36153 ft | 416 kts | 278° |
| 2026-04-17 23:50 | 54.31858 | -27.33263 | 36151 ft | 415 kts | 278° |
| 2026-04-17 23:51 | 54.32632 | -27.43065 | 36150 ft | 415 kts | 278° |
| 2026-04-17 23:51 | 54.33398 | -27.52873 | 36149 ft | 414 kts | 278° |
| 2026-04-17 23:52 | 54.34154 | -27.62654 | 36147 ft | 414 kts | 278° |
| 2026-04-17 23:52 | 54.34903 | -27.72441 | 36151 ft | 414 kts | 278° |
| 2026-04-17 23:53 | 54.35643 | -27.82221 | 36147 ft | 413 kts | 278° |
| 2026-04-17 23:53 | 54.36369 | -27.91928 | 36142 ft | 413 kts | 278° |
| 2026-04-17 23:54 | 54.37092 | -28.01706 | 36143 ft | 413 kts | 277° |
| 2026-04-17 23:54 | 54.37806 | -28.11476 | 36143 ft | 412 kts | 277° |
| 2026-04-17 23:55 | 54.38512 | -28.21235 | 36142 ft | 412 kts | 277° |
| 2026-04-17 23:55 | 54.39209 | -28.30994 | 36144 ft | 412 kts | 277° |
| 2026-04-17 23:56 | 54.39898 | -28.40750 | 36143 ft | 411 kts | 277° |
| 2026-04-17 23:56 | 54.40575 | -28.50437 | 36143 ft | 411 kts | 277° |
| 2026-04-17 23:57 | 54.41246 | -28.60165 | 36143 ft | 411 kts | 277° |
| 2026-04-17 23:57 | 54.41909 | -28.69901 | 36139 ft | 410 kts | 277° |
| 2026-04-17 23:58 | 54.42564 | -28.79625 | 36141 ft | 410 kts | 276° |
| 2026-04-17 23:58 | 54.43212 | -28.89359 | 36140 ft | 409 kts | 276° |
| 2026-04-17 23:59 | 54.43850 | -28.99081 | 36142 ft | 409 kts | 276° |
| 2026-04-17 23:59 | 54.44480 | -29.08792 | 36142 ft | 408 kts | 276° |
| 2026-04-18 00:00 | 54.45101 | -29.18484 | 36141 ft | 408 kts | 276° |
| 2026-04-18 00:00 | 54.45713 | -29.28165 | 36139 ft | 407 kts | 276° |
| 2026-04-18 00:01 | 54.46313 | -29.37779 | 36142 ft | 407 kts | 276° |
| 2026-04-18 00:01 | 54.46909 | -29.47468 | 36137 ft | 406 kts | 276° |
| 2026-04-18 00:02 | 54.47498 | -29.57137 | 36136 ft | 406 kts | 275° |
| 2026-04-18 00:02 | 54.48083 | -29.66789 | 36132 ft | 406 kts | 275° |
| 2026-04-18 00:03 | 54.48661 | -29.76439 | 36129 ft | 405 kts | 275° |
| 2026-04-18 00:03 | 54.49231 | -29.86083 | 36127 ft | 405 kts | 275° |
| 2026-04-18 00:04 | 54.49792 | -29.95717 | 36125 ft | 405 kts | 275° |
| 2026-04-18 00:04 | 54.50234 | -30.05299 | 36124 ft | 404 kts | 272° |
| 2026-04-18 00:05 | 54.50563 | -30.14966 | 36127 ft | 404 kts | 274° |
| 2026-04-18 00:05 | 54.50963 | -30.24602 | 36118 ft | 404 kts | 274° |
| 2026-04-18 00:06 | 54.51354 | -30.34249 | 36124 ft | 404 kts | 273° |
| 2026-04-18 00:06 | 54.51730 | -30.43895 | 36126 ft | 404 kts | 273° |
| 2026-04-18 00:07 | 54.52097 | -30.53533 | 36116 ft | 403 kts | 273° |
| 2026-04-18 00:07 | 54.52451 | -30.63108 | 36114 ft | 403 kts | 273° |
| 2026-04-18 00:08 | 54.52795 | -30.72751 | 36117 ft | 403 kts | 272° |
| 2026-04-18 00:08 | 54.53132 | -30.82394 | 36106 ft | 403 kts | 272° |
| 2026-04-18 00:09 | 54.53460 | -30.92018 | 36110 ft | 403 kts | 272° |
| 2026-04-18 00:09 | 54.53781 | -31.01654 | 36114 ft | 402 kts | 272° |
| 2026-04-18 00:10 | 54.54094 | -31.11276 | 36102 ft | 402 kts | 272° |
| 2026-04-18 00:10 | 54.54399 | -31.20900 | 36098 ft | 402 kts | 272° |
| 2026-04-18 00:11 | 54.54696 | -31.30516 | 36105 ft | 402 kts | 272° |
| 2026-04-18 00:11 | 54.54984 | -31.40071 | 36107 ft | 402 kts | 272° |
| 2026-04-18 00:12 | 54.55265 | -31.49670 | 36099 ft | 401 kts | 272° |
| 2026-04-18 00:12 | 54.55540 | -31.59304 | 36090 ft | 401 kts | 271° |
| 2026-04-18 00:13 | 54.55807 | -31.68922 | 36089 ft | 401 kts | 271° |
| 2026-04-18 00:13 | 54.56065 | -31.78519 | 36087 ft | 401 kts | 271° |
| 2026-04-18 00:14 | 54.56314 | -31.88053 | 36084 ft | 401 kts | 271° |
| 2026-04-18 00:14 | 54.56558 | -31.97651 | 36083 ft | 400 kts | 271° |
| 2026-04-18 00:15 | 54.56793 | -32.07228 | 36081 ft | 400 kts | 271° |
| 2026-04-18 00:15 | 54.57021 | -32.16811 | 36077 ft | 400 kts | 271° |
| 2026-04-18 00:16 | 54.57241 | -32.26403 | 36072 ft | 400 kts | 271° |
| 2026-04-18 00:16 | 54.57453 | -32.35977 | 36068 ft | 400 kts | 270° |
| 2026-04-18 00:17 | 54.57658 | -32.45549 | 36067 ft | 399 kts | 270° |
| 2026-04-18 00:17 | 54.57854 | -32.55070 | 36059 ft | 399 kts | 270° |
| 2026-04-18 00:18 | 54.58043 | -32.64635 | 36059 ft | 399 kts | 270° |
| 2026-04-18 00:18 | 54.58225 | -32.74200 | 36055 ft | 399 kts | 270° |
| 2026-04-18 00:19 | 54.58400 | -32.83778 | 36052 ft | 399 kts | 270° |
| 2026-04-18 00:19 | 54.58565 | -32.93280 | 36053 ft | 399 kts | 270° |
| 2026-04-18 00:20 | 54.58725 | -33.02848 | 36043 ft | 399 kts | 270° |
| 2026-04-18 00:20 | 54.58876 | -33.12408 | 36038 ft | 399 kts | 269° |
| 2026-04-18 00:21 | 54.59020 | -33.21967 | 36036 ft | 399 kts | 269° |
| 2026-04-18 00:21 | 54.59157 | -33.31521 | 36033 ft | 399 kts | 269° |
| 2026-04-18 00:22 | 54.59286 | -33.41082 | 36030 ft | 399 kts | 269° |
| 2026-04-18 00:22 | 54.59407 | -33.50654 | 36026 ft | 399 kts | 269° |
| 2026-04-18 00:23 | 54.59521 | -33.60217 | 36020 ft | 399 kts | 269° |
| 2026-04-18 00:23 | 54.59627 | -33.69714 | 36017 ft | 399 kts | 269° |
| 2026-04-18 00:24 | 54.59726 | -33.79274 | 36011 ft | 399 kts | 269° |
| 2026-04-18 00:24 | 54.59817 | -33.88833 | 36009 ft | 399 kts | 268° |
| 2026-04-18 00:25 | 54.59901 | -33.98399 | 36009 ft | 399 kts | 268° |
| 2026-04-18 00:25 | 54.59978 | -34.07984 | 36003 ft | 399 kts | 268° |
| 2026-04-18 00:26 | 54.60046 | -34.17566 | 35998 ft | 399 kts | 268° |
| 2026-04-18 00:26 | 54.60108 | -34.27147 | 35992 ft | 399 kts | 268° |
| 2026-04-18 00:27 | 54.60161 | -34.36656 | 35989 ft | 399 kts | 268° |
| 2026-04-18 00:27 | 54.60207 | -34.46247 | 35984 ft | 400 kts | 268° |
| 2026-04-18 00:28 | 54.60246 | -34.55836 | 35978 ft | 400 kts | 268° |
| 2026-04-18 00:28 | 54.60277 | -34.65433 | 35975 ft | 400 kts | 268° |
| 2026-04-18 00:29 | 54.60301 | -34.75043 | 35972 ft | 400 kts | 267° |
| 2026-04-18 00:29 | 54.60317 | -34.84655 | 35970 ft | 400 kts | 267° |
| 2026-04-18 00:30 | 54.60325 | -34.94267 | 35965 ft | 401 kts | 267° |
| 2026-04-18 00:30 | 54.60326 | -35.03839 | 35960 ft | 401 kts | 267° |
| 2026-04-18 00:31 | 54.60319 | -35.13463 | 35953 ft | 401 kts | 267° |
| 2026-04-18 00:31 | 54.60305 | -35.23104 | 35945 ft | 402 kts | 267° |
| 2026-04-18 00:32 | 54.60282 | -35.32736 | 35951 ft | 402 kts | 267° |
| 2026-04-18 00:32 | 54.60253 | -35.42374 | 35948 ft | 402 kts | 266° |
| 2026-04-18 00:33 | 54.60215 | -35.52026 | 35936 ft | 402 kts | 266° |
| 2026-04-18 00:33 | 54.60170 | -35.61613 | 35929 ft | 402 kts | 266° |
| 2026-04-18 00:34 | 54.60117 | -35.71265 | 35919 ft | 403 kts | 266° |
| 2026-04-18 00:34 | 54.60057 | -35.80931 | 35929 ft | 403 kts | 266° |
| 2026-04-18 00:35 | 54.60046 | -35.82567 | 35920 ft | 403 kts | 266° |